Terminal Aerodrome Forecast
Issued by NWS

Home | Current Version | Previous Version | Text Only | Print | Product List | Glossary On
Versions: 1 2 3 4 5 6 7 8 9 10 11 12 13 14 15 16
511
FTAK31 PAJN 030527
TAFAWG
TAF
PAWG 030527Z 0306/0406 24005KT P6SM -SHRA BKN035 OVC060
     FM031100 VRB04KT P6SM -SHRA BKN030 OVC050
     FM031900 30005KT P6SM -SHRA BKN045 OVC060
     FM040200 24005KT P6SM -SHRA BKN040 BKN060
      AMD LTD TO CLD VIS AND WIND 0306/0315=

USA.gov is the U.S. government's official web portal to all federal, state and local government web resources and services.